PROFILE

 METAR AND TAF INFORMATION
ADDS - METARS form results

(0547 UTC 22 September 2019)
http://aviationweather.gov/metar/data/
 
UHPP 220530Z 15004MPS 9999 FEW043 14/06 Q1011 R34L/CLRD70 NOSIG RMK MT OBSC QFE755/1007
UHPP 220500Z 15005MPS 9999 FEW043CB 15/06 Q1011 R34L/CLRD70 NOSIG RMK MT OBSC QFE755/1007
TAF UHPP 220444Z 2206/2312 32003G12MPS 9999 NSC TEMPO 2206/2209 19003G10MPS BKN030CB TEMPO 2300/2309 18003G10MPS 

 AIRPORT MAP

 RUNWAY INFORMATION
Runway 12 Runway length 735 ft Runway width 50 ft
Runway elevation 0 ft Runway displaced threshold 0 ft Runway heading 118
Runway 30 Runway length 735 ft Runway width 50 ft
Runway elevation 0 ft Runway displaced threshold 0 ft Runway heading 298
Runway 16L Runway length 11155 ft Runway width 197 ft
Runway elevation 112 ft Runway displaced threshold 0 ft Runway heading 157
Runway 34R Runway length 11155 ft Runway width 197 ft
Runway elevation 131 ft Runway displaced threshold 0 ft Runway heading 337
Runway 16R Runway length 8235 ft Runway width 197 ft
Runway elevation 0 ft Runway displaced threshold 0 ft Runway heading 157
Runway 34L Runway length 8235 ft Runway width 197 ft
Runway elevation 0 ft Runway displaced threshold 0 ft Runway heading 337

 AIRPORT FREQUENCIES
Type ARSA Name PETROPAVLO Frequency 119.4 MHZ
Type TWR Name PETROPAVLO Frequency 118.1 MHZ

 AIRPORT NEAR NAVIGATION AIDS
Type NDB Name Petropavlovsk-Kamchatsky Frequency 535 KHZ